Terminal Aerodrome Forecast
Issued by NWS

Home | Current Version | Previous Version | Text Only | Print | Product List | Glossary On
Versions: 1 2 3 4 5 6 7 8 9 10 11 12 13 14 15 16 17 18
191
FTAK31 PAJN 211128
TAFAWG
TAF
PAWG 211128Z 2112/2212 11011KT P6SM SCT200
     FM220600 10009KT P6SM BKN110
      AMD LTD TO CLD VIS AND WIND 2112/2115=

USA.gov is the U.S. government's official web portal to all federal, state and local government web resources and services.